sensor_id;sensor_type;location;lat;lon;timestamp;P1;durP1;ratioP1;P2;durP2;ratioP2
793;SDS011;380;48.738;9.214;2023-07-02T00:01:58;2.75;;;1.95;;
793;SDS011;380;48.738;9.214;2023-07-02T00:04:27;2.60;;;1.98;;
793;SDS011;380;48.738;9.214;2023-07-02T00:07:06;3.00;;;1.80;;
793;SDS011;380;48.738;9.214;2023-07-02T00:09:41;2.17;;;1.52;;
793;SDS011;380;48.738;9.214;2023-07-02T00:12:24;5.47;;;2.00;;
793;SDS011;380;48.738;9.214;2023-07-02T00:15:02;5.95;;;2.45;;
793;SDS011;380;48.738;9.214;2023-07-02T00:17:52;2.65;;;2.20;;
793;SDS011;380;48.738;9.214;2023-07-02T00:20:25;2.87;;;1.60;;
793;SDS011;380;48.738;9.214;2023-07-02T00:26:11;4.05;;;1.98;;
793;SDS011;380;48.738;9.214;2023-07-02T00:28:43;2.55;;;1.90;;
793;SDS011;380;48.738;9.214;2023-07-02T00:31:10;2.90;;;1.80;;
793;SDS011;380;48.738;9.214;2023-07-02T00:33:36;3.70;;;2.20;;
793;SDS011;380;48.738;9.214;2023-07-02T00:36:21;2.60;;;1.67;;
793;SDS011;380;48.738;9.214;2023-07-02T00:39:13;2.78;;;1.90;;
793;SDS011;380;48.738;9.214;2023-07-02T00:44:48;3.28;;;1.75;;
793;SDS011;380;48.738;9.214;2023-07-02T00:47:23;7.32;;;1.77;;
793;SDS011;380;48.738;9.214;2023-07-02T00:50:11;3.08;;;1.88;;
793;SDS011;380;48.738;9.214;2023-07-02T00:52:43;2.15;;;1.50;;
793;SDS011;380;48.738;9.214;2023-07-02T00:55:28;3.20;;;2.03;;
793;SDS011;380;48.738;9.214;2023-07-02T00:58:17;3.30;;;1.92;;
793;SDS011;380;48.738;9.214;2023-07-02T01:00:47;3.17;;;1.77;;
793;SDS011;380;48.738;9.214;2023-07-02T01:06:22;2.63;;;1.73;;
793;SDS011;380;48.738;9.214;2023-07-02T01:17:09;2.30;;;1.60;;
793;SDS011;380;48.738;9.214;2023-07-02T01:22:23;4.65;;;2.42;;
793;SDS011;380;48.738;9.214;2023-07-02T01:24:56;4.53;;;1.80;;
793;SDS011;380;48.738;9.214;2023-07-02T01:27:28;2.97;;;1.65;;
793;SDS011;380;48.738;9.214;2023-07-02T01:30:14;3.33;;;1.88;;
793;SDS011;380;48.738;9.214;2023-07-02T01:32:52;2.35;;;1.33;;
793;SDS011;380;48.738;9.214;2023-07-02T01:35:24;2.75;;;1.70;;
793;SDS011;380;48.738;9.214;2023-07-02T01:38:17;3.05;;;1.83;;
793;SDS011;380;48.738;9.214;2023-07-02T01:40:53;2.72;;;1.85;;
793;SDS011;380;48.738;9.214;2023-07-02T01:43:27;2.85;;;1.83;;
793;SDS011;380;48.738;9.214;2023-07-02T01:45:56;2.40;;;1.38;;
793;SDS011;380;48.738;9.214;2023-07-02T01:48:32;2.50;;;1.40;;
793;SDS011;380;48.738;9.214;2023-07-02T01:51:18;3.38;;;1.80;;
793;SDS011;380;48.738;9.214;2023-07-02T01:53:55;2.85;;;1.85;;
793;SDS011;380;48.738;9.214;2023-07-02T01:56:29;3.10;;;1.98;;
793;SDS011;380;48.738;9.214;2023-07-02T01:58:55;3.50;;;1.52;;
793;SDS011;380;48.738;9.214;2023-07-02T02:01:41;2.80;;;1.67;;
793;SDS011;380;48.738;9.214;2023-07-02T02:04:11;2.55;;;1.65;;
793;SDS011;380;48.738;9.214;2023-07-02T02:06:45;2.88;;;1.60;;
793;SDS011;380;48.738;9.214;2023-07-02T02:09:12;3.03;;;1.85;;
793;SDS011;380;48.738;9.214;2023-07-02T02:14:47;2.35;;;1.33;;
793;SDS011;380;48.738;9.214;2023-07-02T02:17:19;2.10;;;1.40;;
793;SDS011;380;48.738;9.214;2023-07-02T02:19:56;2.20;;;1.48;;
793;SDS011;380;48.738;9.214;2023-07-02T02:22:25;6.30;;;1.30;;
793;SDS011;380;48.738;9.214;2023-07-02T02:25:03;3.92;;;2.22;;
793;SDS011;380;48.738;9.214;2023-07-02T02:27:37;1.98;;;1.33;;
793;SDS011;380;48.738;9.214;2023-07-02T02:30:13;2.35;;;1.15;;
793;SDS011;380;48.738;9.214;2023-07-02T02:32:39;2.42;;;1.73;;
793;SDS011;380;48.738;9.214;2023-07-02T02:35:30;1.83;;;1.13;;
793;SDS011;380;48.738;9.214;2023-07-02T02:38:07;2.13;;;1.48;;
793;SDS011;380;48.738;9.214;2023-07-02T02:40:43;2.45;;;1.80;;
793;SDS011;380;48.738;9.214;2023-07-02T02:43:15;2.95;;;1.52;;
793;SDS011;380;48.738;9.214;2023-07-02T02:45:50;3.08;;;1.52;;
793;SDS011;380;48.738;9.214;2023-07-02T02:48:28;2.20;;;1.55;;
793;SDS011;380;48.738;9.214;2023-07-02T02:50:57;2.20;;;1.58;;
793;SDS011;380;48.738;9.214;2023-07-02T02:53:38;2.45;;;1.42;;
793;SDS011;380;48.738;9.214;2023-07-02T02:56:11;2.63;;;1.70;;
793;SDS011;380;48.738;9.214;2023-07-02T03:01:48;2.20;;;1.48;;
793;SDS011;380;48.738;9.214;2023-07-02T03:04:25;2.60;;;1.60;;
793;SDS011;380;48.738;9.214;2023-07-02T03:06:55;2.28;;;1.67;;
793;SDS011;380;48.738;9.214;2023-07-02T03:09:26;6.70;;;1.83;;
793;SDS011;380;48.738;9.214;2023-07-02T03:12:23;5.07;;;2.22;;
793;SDS011;380;48.738;9.214;2023-07-02T03:14:54;2.65;;;1.95;;
793;SDS011;380;48.738;9.214;2023-07-02T03:17:21;2.30;;;1.90;;
793;SDS011;380;48.738;9.214;2023-07-02T03:19:59;2.72;;;1.55;;
793;SDS011;380;48.738;9.214;2023-07-02T03:22:37;3.00;;;2.28;;
793;SDS011;380;48.738;9.214;2023-07-02T03:25:16;2.17;;;1.63;;
793;SDS011;380;48.738;9.214;2023-07-02T03:28:07;3.22;;;1.83;;
793;SDS011;380;48.738;9.214;2023-07-02T03:30:54;3.10;;;2.17;;
793;SDS011;380;48.738;9.214;2023-07-02T03:33:29;3.50;;;1.90;;
793;SDS011;380;48.738;9.214;2023-07-02T03:36:18;5.15;;;2.10;;
793;SDS011;380;48.738;9.214;2023-07-02T03:38:46;2.80;;;2.08;;
793;SDS011;380;48.738;9.214;2023-07-02T03:41:16;4.55;;;2.55;;
793;SDS011;380;48.738;9.214;2023-07-02T03:43:53;2.60;;;1.70;;
793;SDS011;380;48.738;9.214;2023-07-02T03:46:33;2.90;;;2.33;;
793;SDS011;380;48.738;9.214;2023-07-02T03:49:02;4.38;;;1.77;;
793;SDS011;380;48.738;9.214;2023-07-02T03:51:29;3.40;;;2.53;;
793;SDS011;380;48.738;9.214;2023-07-02T03:54:12;10.32;;;2.35;;
793;SDS011;380;48.738;9.214;2023-07-02T03:59:45;3.67;;;2.08;;
793;SDS011;380;48.738;9.214;2023-07-02T04:02:27;7.15;;;2.95;;
793;SDS011;380;48.738;9.214;2023-07-02T04:07:55;6.07;;;2.25;;
793;SDS011;380;48.738;9.214;2023-07-02T04:10:33;4.32;;;2.60;;
793;SDS011;380;48.738;9.214;2023-07-02T04:13:11;4.43;;;2.10;;
793;SDS011;380;48.738;9.214;2023-07-02T04:15:42;4.15;;;2.70;;
793;SDS011;380;48.738;9.214;2023-07-02T04:18:17;3.28;;;2.60;;
793;SDS011;380;48.738;9.214;2023-07-02T04:20:52;6.95;;;3.35;;
793;SDS011;380;48.738;9.214;2023-07-02T04:23:26;6.93;;;2.88;;
793;SDS011;380;48.738;9.214;2023-07-02T04:26:00;3.78;;;2.53;;
793;SDS011;380;48.738;9.214;2023-07-02T04:28:31;6.53;;;3.03;;
793;SDS011;380;48.738;9.214;2023-07-02T04:31:09;4.80;;;2.92;;
793;SDS011;380;48.738;9.214;2023-07-02T04:33:39;4.25;;;2.53;;
793;SDS011;380;48.738;9.214;2023-07-02T04:36:28;3.97;;;2.65;;
793;SDS011;380;48.738;9.214;2023-07-02T04:39:14;4.15;;;2.75;;
793;SDS011;380;48.738;9.214;2023-07-02T04:42:15;4.15;;;3.47;;
793;SDS011;380;48.738;9.214;2023-07-02T04:47:45;4.72;;;2.85;;
793;SDS011;380;48.738;9.214;2023-07-02T04:50:25;5.28;;;3.28;;
793;SDS011;380;48.738;9.214;2023-07-02T04:52:58;4.50;;;3.03;;
793;SDS011;380;48.738;9.214;2023-07-02T04:55:26;2.97;;;2.20;;
793;SDS011;380;48.738;9.214;2023-07-02T04:58:18;4.03;;;2.55;;
793;SDS011;380;48.738;9.214;2023-07-02T05:00:50;5.47;;;2.45;;
793;SDS011;380;48.738;9.214;2023-07-02T05:03:21;4.80;;;2.53;;
793;SDS011;380;48.738;9.214;2023-07-02T05:08:44;3.47;;;2.40;;
793;SDS011;380;48.738;9.214;2023-07-02T05:11:48;4.35;;;2.55;;
793;SDS011;380;48.738;9.214;2023-07-02T05:14:22;3.50;;;2.53;;
793;SDS011;380;48.738;9.214;2023-07-02T05:16:54;4.07;;;2.42;;
793;SDS011;380;48.738;9.214;2023-07-02T05:19:47;4.32;;;2.80;;
793;SDS011;380;48.738;9.214;2023-07-02T05:22:27;4.57;;;2.85;;
793;SDS011;380;48.738;9.214;2023-07-02T05:25:08;3.70;;;2.67;;
793;SDS011;380;48.738;9.214;2023-07-02T05:27:45;3.78;;;2.75;;
793;SDS011;380;48.738;9.214;2023-07-02T05:30:25;3.42;;;2.35;;
793;SDS011;380;48.738;9.214;2023-07-02T05:32:56;4.40;;;2.58;;
793;SDS011;380;48.738;9.214;2023-07-02T05:35:38;5.22;;;3.10;;
793;SDS011;380;48.738;9.214;2023-07-02T05:38:36;4.22;;;3.08;;
793;SDS011;380;48.738;9.214;2023-07-02T05:41:11;7.40;;;3.15;;
793;SDS011;380;48.738;9.214;2023-07-02T05:43:49;4.22;;;3.03;;
793;SDS011;380;48.738;9.214;2023-07-02T05:46:33;4.65;;;3.22;;
793;SDS011;380;48.738;9.214;2023-07-02T05:49:02;7.68;;;3.90;;
793;SDS011;380;48.738;9.214;2023-07-02T05:51:33;6.85;;;3.92;;
793;SDS011;380;48.738;9.214;2023-07-02T05:54:09;7.35;;;3.78;;
793;SDS011;380;48.738;9.214;2023-07-02T05:56:48;4.07;;;3.45;;
793;SDS011;380;48.738;9.214;2023-07-02T05:59:38;6.60;;;3.28;;
793;SDS011;380;48.738;9.214;2023-07-02T06:02:24;4.95;;;3.33;;
793;SDS011;380;48.738;9.214;2023-07-02T06:05:11;3.97;;;3.17;;
793;SDS011;380;48.738;9.214;2023-07-02T06:07:40;4.50;;;2.90;;
793;SDS011;380;48.738;9.214;2023-07-02T06:13:36;7.00;;;4.80;;
793;SDS011;380;48.738;9.214;2023-07-02T06:16:25;4.72;;;3.05;;
793;SDS011;380;48.738;9.214;2023-07-02T06:18:54;6.10;;;4.03;;
793;SDS011;380;48.738;9.214;2023-07-02T06:21:25;8.93;;;4.05;;
793;SDS011;380;48.738;9.214;2023-07-02T06:24:00;6.40;;;4.30;;
793;SDS011;380;48.738;9.214;2023-07-02T06:26:30;5.78;;;4.35;;
793;SDS011;380;48.738;9.214;2023-07-02T06:28:59;7.45;;;5.10;;
793;SDS011;380;48.738;9.214;2023-07-02T06:31:28;7.07;;;4.65;;
793;SDS011;380;48.738;9.214;2023-07-02T06:34:08;12.43;;;5.60;;
793;SDS011;380;48.738;9.214;2023-07-02T06:36:37;7.95;;;5.43;;
793;SDS011;380;48.738;9.214;2023-07-02T06:39:03;7.00;;;4.80;;
793;SDS011;380;48.738;9.214;2023-07-02T06:41:50;8.55;;;5.53;;
793;SDS011;380;48.738;9.214;2023-07-02T06:44:24;9.10;;;5.65;;
793;SDS011;380;48.738;9.214;2023-07-02T06:47:21;8.20;;;5.78;;
793;SDS011;380;48.738;9.214;2023-07-02T06:49:51;8.75;;;6.03;;
793;SDS011;380;48.738;9.214;2023-07-02T06:52:30;10.82;;;6.53;;
793;SDS011;380;48.738;9.214;2023-07-02T06:55:03;10.40;;;5.20;;
793;SDS011;380;48.738;9.214;2023-07-02T06:57:31;9.50;;;5.43;;
793;SDS011;380;48.738;9.214;2023-07-02T07:00:03;11.15;;;6.07;;
793;SDS011;380;48.738;9.214;2023-07-02T07:02:32;7.05;;;5.55;;
793;SDS011;380;48.738;9.214;2023-07-02T07:05:06;8.40;;;5.18;;
793;SDS011;380;48.738;9.214;2023-07-02T07:10:52;10.43;;;6.45;;
793;SDS011;380;48.738;9.214;2023-07-02T07:13:23;7.97;;;6.90;;
793;SDS011;380;48.738;9.214;2023-07-02T07:15:52;11.75;;;6.25;;
793;SDS011;380;48.738;9.214;2023-07-02T07:21:16;8.43;;;6.20;;
793;SDS011;380;48.738;9.214;2023-07-02T07:23:59;9.63;;;6.18;;
793;SDS011;380;48.738;9.214;2023-07-02T07:26:29;8.93;;;5.47;;
793;SDS011;380;48.738;9.214;2023-07-02T07:28:58;9.70;;;5.88;;
793;SDS011;380;48.738;9.214;2023-07-02T07:31:33;12.07;;;6.78;;
793;SDS011;380;48.738;9.214;2023-07-02T07:34:16;9.75;;;6.60;;
793;SDS011;380;48.738;9.214;2023-07-02T07:36:43;10.85;;;7.25;;
793;SDS011;380;48.738;9.214;2023-07-02T07:39:11;9.15;;;6.60;;
793;SDS011;380;48.738;9.214;2023-07-02T07:41:37;9.57;;;7.57;;
793;SDS011;380;48.738;9.214;2023-07-02T07:44:16;14.10;;;7.70;;
793;SDS011;380;48.738;9.214;2023-07-02T07:47:02;12.68;;;8.30;;
793;SDS011;380;48.738;9.214;2023-07-02T07:49:36;9.23;;;6.78;;
793;SDS011;380;48.738;9.214;2023-07-02T07:52:05;12.27;;;7.90;;
793;SDS011;380;48.738;9.214;2023-07-02T07:54:44;11.48;;;7.78;;
793;SDS011;380;48.738;9.214;2023-07-02T07:57:34;11.68;;;7.82;;
793;SDS011;380;48.738;9.214;2023-07-02T08:00:12;9.82;;;7.47;;
793;SDS011;380;48.738;9.214;2023-07-02T08:02:57;10.20;;;8.02;;
793;SDS011;380;48.738;9.214;2023-07-02T08:05:33;12.57;;;8.75;;
793;SDS011;380;48.738;9.214;2023-07-02T08:08:10;11.45;;;7.65;;
793;SDS011;380;48.738;9.214;2023-07-02T08:10:42;10.75;;;7.53;;
793;SDS011;380;48.738;9.214;2023-07-02T08:13:11;12.60;;;8.23;;
793;SDS011;380;48.738;9.214;2023-07-02T08:21:29;9.93;;;8.05;;
793;SDS011;380;48.738;9.214;2023-07-02T08:23:57;10.70;;;7.55;;
793;SDS011;380;48.738;9.214;2023-07-02T08:26:46;12.48;;;7.38;;
793;SDS011;380;48.738;9.214;2023-07-02T08:29:18;12.30;;;8.07;;
793;SDS011;380;48.738;9.214;2023-07-02T08:32:05;10.10;;;7.88;;
793;SDS011;380;48.738;9.214;2023-07-02T08:37:12;11.45;;;7.40;;
793;SDS011;380;48.738;9.214;2023-07-02T08:39:55;12.35;;;9.23;;
793;SDS011;380;48.738;9.214;2023-07-02T08:45:24;12.50;;;8.25;;
793;SDS011;380;48.738;9.214;2023-07-02T08:48:01;11.63;;;7.60;;
793;SDS011;380;48.738;9.214;2023-07-02T08:50:30;10.25;;;8.48;;
793;SDS011;380;48.738;9.214;2023-07-02T08:53:17;9.73;;;7.70;;
793;SDS011;380;48.738;9.214;2023-07-02T08:55:44;11.13;;;7.60;;
793;SDS011;380;48.738;9.214;2023-07-02T08:58:14;12.38;;;7.80;;
793;SDS011;380;48.738;9.214;2023-07-02T09:03:58;11.40;;;8.18;;
793;SDS011;380;48.738;9.214;2023-07-02T09:06:33;13.35;;;9.07;;
793;SDS011;380;48.738;9.214;2023-07-02T09:09:07;12.63;;;8.73;;
793;SDS011;380;48.738;9.214;2023-07-02T09:11:52;10.95;;;8.10;;
793;SDS011;380;48.738;9.214;2023-07-02T09:14:31;12.10;;;8.18;;
793;SDS011;380;48.738;9.214;2023-07-02T09:17:16;13.57;;;7.40;;
793;SDS011;380;48.738;9.214;2023-07-02T09:20:05;10.00;;;6.80;;
793;SDS011;380;48.738;9.214;2023-07-02T09:22:56;8.38;;;6.68;;
793;SDS011;380;48.738;9.214;2023-07-02T09:25:41;8.57;;;6.68;;
793;SDS011;380;48.738;9.214;2023-07-02T09:28:20;10.02;;;7.85;;
793;SDS011;380;48.738;9.214;2023-07-02T09:31:04;10.77;;;7.57;;
793;SDS011;380;48.738;9.214;2023-07-02T09:33:34;9.15;;;6.15;;
793;SDS011;380;48.738;9.214;2023-07-02T09:36:13;9.50;;;7.07;;
793;SDS011;380;48.738;9.214;2023-07-02T09:39:00;7.63;;;6.40;;
793;SDS011;380;48.738;9.214;2023-07-02T09:41:35;7.33;;;6.57;;
793;SDS011;380;48.738;9.214;2023-07-02T09:44:27;10.53;;;7.27;;
793;SDS011;380;48.738;9.214;2023-07-02T09:47:08;12.20;;;6.97;;
793;SDS011;380;48.738;9.214;2023-07-02T09:49:49;11.80;;;7.18;;
793;SDS011;380;48.738;9.214;2023-07-02T09:52:26;10.90;;;7.85;;
793;SDS011;380;48.738;9.214;2023-07-02T09:55:01;10.77;;;7.00;;
793;SDS011;380;48.738;9.214;2023-07-02T09:57:31;9.55;;;6.93;;
793;SDS011;380;48.738;9.214;2023-07-02T10:00:04;9.18;;;7.40;;
793;SDS011;380;48.738;9.214;2023-07-02T10:02:37;14.05;;;8.55;;
793;SDS011;380;48.738;9.214;2023-07-02T10:05:08;11.68;;;8.65;;
793;SDS011;380;48.738;9.214;2023-07-02T10:07:44;9.50;;;8.20;;
793;SDS011;380;48.738;9.214;2023-07-02T10:10:15;10.50;;;8.02;;
793;SDS011;380;48.738;9.214;2023-07-02T10:13:11;7.85;;;6.10;;
793;SDS011;380;48.738;9.214;2023-07-02T10:18:30;11.10;;;8.43;;
793;SDS011;380;48.738;9.214;2023-07-02T10:21:17;12.00;;;9.90;;
793;SDS011;380;48.738;9.214;2023-07-02T10:26:18;15.05;;;10.35;;
793;SDS011;380;48.738;9.214;2023-07-02T10:28:59;13.55;;;10.48;;
793;SDS011;380;48.738;9.214;2023-07-02T10:31:47;14.50;;;11.65;;
793;SDS011;380;48.738;9.214;2023-07-02T10:34:36;13.80;;;9.52;;
793;SDS011;380;48.738;9.214;2023-07-02T10:37:06;11.38;;;9.85;;
793;SDS011;380;48.738;9.214;2023-07-02T10:39:41;10.80;;;9.25;;
793;SDS011;380;48.738;9.214;2023-07-02T10:42:26;10.00;;;8.55;;
793;SDS011;380;48.738;9.214;2023-07-02T10:45:11;11.88;;;8.05;;
793;SDS011;380;48.738;9.214;2023-07-02T10:50:28;11.32;;;8.13;;
793;SDS011;380;48.738;9.214;2023-07-02T10:55:54;14.38;;;9.40;;
793;SDS011;380;48.738;9.214;2023-07-02T10:58:29;13.80;;;8.93;;
793;SDS011;380;48.738;9.214;2023-07-02T11:06:45;10.80;;;8.85;;
793;SDS011;380;48.738;9.214;2023-07-02T11:09:20;12.80;;;8.38;;
793;SDS011;380;48.738;9.214;2023-07-02T11:11:58;11.23;;;8.38;;
793;SDS011;380;48.738;9.214;2023-07-02T11:14:34;14.82;;;9.10;;
793;SDS011;380;48.738;9.214;2023-07-02T11:17:09;11.10;;;8.52;;
793;SDS011;380;48.738;9.214;2023-07-02T11:19:50;14.18;;;8.98;;
793;SDS011;380;48.738;9.214;2023-07-02T11:22:34;9.27;;;7.90;;
793;SDS011;380;48.738;9.214;2023-07-02T11:25:20;12.75;;;9.30;;
793;SDS011;380;48.738;9.214;2023-07-02T11:28:05;12.90;;;8.77;;
793;SDS011;380;48.738;9.214;2023-07-02T11:30:44;13.77;;;8.25;;
793;SDS011;380;48.738;9.214;2023-07-02T11:33:15;10.05;;;7.55;;
793;SDS011;380;48.738;9.214;2023-07-02T11:36:00;10.43;;;7.65;;
793;SDS011;380;48.738;9.214;2023-07-02T11:38:29;10.30;;;7.22;;
793;SDS011;380;48.738;9.214;2023-07-02T11:44:03;11.63;;;8.80;;
793;SDS011;380;48.738;9.214;2023-07-02T11:46:38;10.05;;;9.00;;
793;SDS011;380;48.738;9.214;2023-07-02T11:49:16;12.57;;;8.10;;
793;SDS011;380;48.738;9.214;2023-07-02T11:51:56;10.80;;;8.63;;
793;SDS011;380;48.738;9.214;2023-07-02T11:54:46;10.32;;;7.72;;
793;SDS011;380;48.738;9.214;2023-07-02T11:57:16;11.93;;;8.68;;
793;SDS011;380;48.738;9.214;2023-07-02T11:59:53;12.05;;;8.48;;
793;SDS011;380;48.738;9.214;2023-07-02T12:02:39;13.43;;;10.00;;
793;SDS011;380;48.738;9.214;2023-07-02T12:05:25;11.95;;;7.72;;
793;SDS011;380;48.738;9.214;2023-07-02T12:07:57;9.23;;;7.18;;
793;SDS011;380;48.738;9.214;2023-07-02T12:10:52;9.23;;;7.65;;
793;SDS011;380;48.738;9.214;2023-07-02T12:13:19;11.30;;;8.18;;
793;SDS011;380;48.738;9.214;2023-07-02T12:15:54;11.50;;;8.00;;
793;SDS011;380;48.738;9.214;2023-07-02T12:18:23;14.27;;;8.55;;
793;SDS011;380;48.738;9.214;2023-07-02T12:20:55;9.18;;;8.07;;
793;SDS011;380;48.738;9.214;2023-07-02T12:23:22;13.00;;;8.43;;
793;SDS011;380;48.738;9.214;2023-07-02T12:25:55;11.73;;;8.88;;
793;SDS011;380;48.738;9.214;2023-07-02T12:31:34;12.20;;;8.73;;
793;SDS011;380;48.738;9.214;2023-07-02T12:34:08;12.98;;;7.13;;
793;SDS011;380;48.738;9.214;2023-07-02T12:36:40;14.75;;;8.88;;
793;SDS011;380;48.738;9.214;2023-07-02T12:39:15;9.05;;;7.82;;
793;SDS011;380;48.738;9.214;2023-07-02T12:41:46;11.68;;;8.85;;
793;SDS011;380;48.738;9.214;2023-07-02T12:44:18;10.95;;;6.88;;
793;SDS011;380;48.738;9.214;2023-07-02T12:46:52;11.87;;;7.70;;
793;SDS011;380;48.738;9.214;2023-07-02T12:49:25;12.15;;;8.18;;
793;SDS011;380;48.738;9.214;2023-07-02T12:51:54;11.95;;;7.82;;
793;SDS011;380;48.738;9.214;2023-07-02T12:54:23;12.25;;;9.20;;
793;SDS011;380;48.738;9.214;2023-07-02T12:57:04;11.23;;;7.97;;
793;SDS011;380;48.738;9.214;2023-07-02T12:59:39;8.38;;;7.55;;
793;SDS011;380;48.738;9.214;2023-07-02T13:02:14;11.15;;;7.65;;
793;SDS011;380;48.738;9.214;2023-07-02T13:04:46;10.55;;;7.78;;
793;SDS011;380;48.738;9.214;2023-07-02T13:07:17;12.18;;;7.65;;
793;SDS011;380;48.738;9.214;2023-07-02T13:09:53;15.02;;;8.95;;
793;SDS011;380;48.738;9.214;2023-07-02T13:12:27;10.35;;;8.85;;
793;SDS011;380;48.738;9.214;2023-07-02T13:15:25;11.25;;;7.97;;
793;SDS011;380;48.738;9.214;2023-07-02T13:17:50;11.52;;;8.68;;
793;SDS011;380;48.738;9.214;2023-07-02T13:20:20;12.38;;;7.85;;
793;SDS011;380;48.738;9.214;2023-07-02T13:22:52;12.73;;;8.98;;
793;SDS011;380;48.738;9.214;2023-07-02T13:25:28;11.32;;;7.45;;
793;SDS011;380;48.738;9.214;2023-07-02T13:27:57;11.85;;;8.43;;
793;SDS011;380;48.738;9.214;2023-07-02T13:30:33;11.20;;;8.50;;
793;SDS011;380;48.738;9.214;2023-07-02T13:33:27;11.02;;;7.97;;
793;SDS011;380;48.738;9.214;2023-07-02T13:36:01;11.60;;;8.73;;
793;SDS011;380;48.738;9.214;2023-07-02T13:38:33;14.95;;;8.45;;
793;SDS011;380;48.738;9.214;2023-07-02T13:41:03;9.98;;;7.55;;
793;SDS011;380;48.738;9.214;2023-07-02T13:43:35;10.45;;;8.55;;
793;SDS011;380;48.738;9.214;2023-07-02T13:46:12;9.80;;;7.65;;
793;SDS011;380;48.738;9.214;2023-07-02T13:48:50;9.75;;;8.02;;
793;SDS011;380;48.738;9.214;2023-07-02T13:51:37;9.23;;;7.65;;
793;SDS011;380;48.738;9.214;2023-07-02T13:54:12;9.50;;;7.43;;
793;SDS011;380;48.738;9.214;2023-07-02T13:56:49;9.05;;;7.35;;
793;SDS011;380;48.738;9.214;2023-07-02T13:59:18;8.82;;;7.55;;
793;SDS011;380;48.738;9.214;2023-07-02T14:02:13;10.10;;;7.57;;
793;SDS011;380;48.738;9.214;2023-07-02T14:04:42;10.90;;;7.75;;
793;SDS011;380;48.738;9.214;2023-07-02T14:07:14;13.45;;;9.32;;
793;SDS011;380;48.738;9.214;2023-07-02T14:09:43;11.95;;;8.40;;
793;SDS011;380;48.738;9.214;2023-07-02T14:12:09;9.10;;;7.22;;
793;SDS011;380;48.738;9.214;2023-07-02T14:14:45;14.00;;;8.48;;
793;SDS011;380;48.738;9.214;2023-07-02T14:17:23;10.25;;;8.48;;
793;SDS011;380;48.738;9.214;2023-07-02T14:19:55;9.27;;;7.88;;
793;SDS011;380;48.738;9.214;2023-07-02T14:22:39;13.43;;;8.40;;
793;SDS011;380;48.738;9.214;2023-07-02T14:25:08;10.93;;;8.15;;
793;SDS011;380;48.738;9.214;2023-07-02T14:27:40;11.48;;;8.00;;
793;SDS011;380;48.738;9.214;2023-07-02T14:30:25;12.00;;;7.82;;
793;SDS011;380;48.738;9.214;2023-07-02T14:32:53;13.50;;;7.85;;
793;SDS011;380;48.738;9.214;2023-07-02T14:35:25;9.50;;;7.35;;
793;SDS011;380;48.738;9.214;2023-07-02T14:37:53;9.57;;;8.48;;
793;SDS011;380;48.738;9.214;2023-07-02T14:40:27;10.15;;;7.57;;
793;SDS011;380;48.738;9.214;2023-07-02T14:43:11;11.35;;;7.55;;
793;SDS011;380;48.738;9.214;2023-07-02T14:45:51;16.55;;;8.27;;
793;SDS011;380;48.738;9.214;2023-07-02T14:51:38;10.57;;;8.32;;
793;SDS011;380;48.738;9.214;2023-07-02T14:54:12;9.82;;;7.93;;
793;SDS011;380;48.738;9.214;2023-07-02T14:56:39;13.20;;;8.43;;
793;SDS011;380;48.738;9.214;2023-07-02T14:59:15;10.43;;;8.18;;
793;SDS011;380;48.738;9.214;2023-07-02T15:01:44;10.52;;;8.43;;
793;SDS011;380;48.738;9.214;2023-07-02T15:04:13;11.00;;;8.25;;
793;SDS011;380;48.738;9.214;2023-07-02T15:06:45;9.95;;;7.68;;
793;SDS011;380;48.738;9.214;2023-07-02T15:09:14;8.63;;;7.13;;
793;SDS011;380;48.738;9.214;2023-07-02T15:11:54;10.52;;;8.57;;
793;SDS011;380;48.738;9.214;2023-07-02T15:14:23;12.70;;;8.88;;
793;SDS011;380;48.738;9.214;2023-07-02T15:17:03;10.80;;;8.35;;
793;SDS011;380;48.738;9.214;2023-07-02T15:19:32;12.38;;;8.57;;
793;SDS011;380;48.738;9.214;2023-07-02T15:21:58;11.98;;;8.27;;
793;SDS011;380;48.738;9.214;2023-07-02T15:24:32;13.35;;;8.63;;
793;SDS011;380;48.738;9.214;2023-07-02T15:26:58;10.85;;;9.00;;
793;SDS011;380;48.738;9.214;2023-07-02T15:29:27;11.02;;;8.65;;
793;SDS011;380;48.738;9.214;2023-07-02T15:31:54;12.02;;;8.00;;
793;SDS011;380;48.738;9.214;2023-07-02T15:34:23;13.48;;;8.13;;
793;SDS011;380;48.738;9.214;2023-07-02T15:36:52;9.75;;;8.75;;
793;SDS011;380;48.738;9.214;2023-07-02T15:39:20;13.05;;;9.75;;
793;SDS011;380;48.738;9.214;2023-07-02T15:41:51;11.18;;;8.25;;
793;SDS011;380;48.738;9.214;2023-07-02T15:44:33;9.55;;;7.97;;
793;SDS011;380;48.738;9.214;2023-07-02T15:47:02;8.85;;;7.93;;
793;SDS011;380;48.738;9.214;2023-07-02T15:49:33;10.18;;;8.10;;
793;SDS011;380;48.738;9.214;2023-07-02T15:52:06;10.98;;;8.38;;
793;SDS011;380;48.738;9.214;2023-07-02T15:54:44;10.32;;;8.10;;
793;SDS011;380;48.738;9.214;2023-07-02T15:57:11;12.63;;;8.98;;
793;SDS011;380;48.738;9.214;2023-07-02T15:59:47;11.13;;;8.77;;
793;SDS011;380;48.738;9.214;2023-07-02T16:02:22;12.82;;;9.02;;
793;SDS011;380;48.738;9.214;2023-07-02T16:04:53;11.77;;;8.60;;
793;SDS011;380;48.738;9.214;2023-07-02T16:07:22;12.52;;;8.70;;
793;SDS011;380;48.738;9.214;2023-07-02T16:10:09;12.38;;;8.05;;
793;SDS011;380;48.738;9.214;2023-07-02T16:13:01;11.75;;;8.70;;
793;SDS011;380;48.738;9.214;2023-07-02T16:15:29;12.05;;;8.52;;
793;SDS011;380;48.738;9.214;2023-07-02T16:18:05;12.23;;;9.75;;
793;SDS011;380;48.738;9.214;2023-07-02T16:23:00;10.93;;;7.72;;
793;SDS011;380;48.738;9.214;2023-07-02T16:25:39;11.10;;;8.25;;
793;SDS011;380;48.738;9.214;2023-07-02T16:28:05;9.23;;;8.27;;
793;SDS011;380;48.738;9.214;2023-07-02T16:30:34;13.57;;;8.25;;
793;SDS011;380;48.738;9.214;2023-07-02T16:33:03;9.60;;;7.88;;
793;SDS011;380;48.738;9.214;2023-07-02T16:35:54;10.35;;;8.65;;
793;SDS011;380;48.738;9.214;2023-07-02T16:38:23;10.57;;;9.32;;
793;SDS011;380;48.738;9.214;2023-07-02T16:40:54;11.40;;;8.85;;
793;SDS011;380;48.738;9.214;2023-07-02T16:43:36;10.18;;;8.35;;
793;SDS011;380;48.738;9.214;2023-07-02T16:46:02;9.90;;;8.30;;
793;SDS011;380;48.738;9.214;2023-07-02T16:48:32;9.55;;;7.03;;
793;SDS011;380;48.738;9.214;2023-07-02T16:51:13;10.77;;;8.63;;
793;SDS011;380;48.738;9.214;2023-07-02T16:53:45;10.32;;;8.07;;
793;SDS011;380;48.738;9.214;2023-07-02T16:56:12;13.38;;;9.15;;
793;SDS011;380;48.738;9.214;2023-07-02T16:58:55;11.38;;;9.27;;
793;SDS011;380;48.738;9.214;2023-07-02T17:01:24;10.52;;;8.02;;
793;SDS011;380;48.738;9.214;2023-07-02T17:03:50;12.25;;;8.90;;
793;SDS011;380;48.738;9.214;2023-07-02T17:06:29;12.45;;;9.07;;
793;SDS011;380;48.738;9.214;2023-07-02T17:11:42;11.32;;;8.27;;
793;SDS011;380;48.738;9.214;2023-07-02T17:14:09;12.02;;;9.10;;
793;SDS011;380;48.738;9.214;2023-07-02T17:16:38;10.25;;;8.40;;
793;SDS011;380;48.738;9.214;2023-07-02T17:19:07;12.15;;;9.07;;
793;SDS011;380;48.738;9.214;2023-07-02T17:21:39;12.40;;;7.57;;
793;SDS011;380;48.738;9.214;2023-07-02T17:24:08;10.80;;;7.50;;
793;SDS011;380;48.738;9.214;2023-07-02T17:26:43;10.48;;;8.02;;
793;SDS011;380;48.738;9.214;2023-07-02T17:29:09;11.90;;;9.05;;
793;SDS011;380;48.738;9.214;2023-07-02T17:31:46;13.05;;;8.70;;
793;SDS011;380;48.738;9.214;2023-07-02T17:34:22;11.00;;;7.75;;
793;SDS011;380;48.738;9.214;2023-07-02T17:39:40;10.27;;;8.32;;
793;SDS011;380;48.738;9.214;2023-07-02T17:44:55;10.25;;;8.10;;
793;SDS011;380;48.738;9.214;2023-07-02T17:47:24;11.45;;;7.85;;
793;SDS011;380;48.738;9.214;2023-07-02T17:50:17;13.23;;;7.63;;
793;SDS011;380;48.738;9.214;2023-07-02T17:52:46;8.25;;;7.13;;
793;SDS011;380;48.738;9.214;2023-07-02T17:55:18;10.23;;;8.10;;
793;SDS011;380;48.738;9.214;2023-07-02T18:00:38;8.65;;;7.38;;
793;SDS011;380;48.738;9.214;2023-07-02T18:03:09;10.20;;;8.07;;
793;SDS011;380;48.738;9.214;2023-07-02T18:05:39;11.38;;;8.18;;
793;SDS011;380;48.738;9.214;2023-07-02T18:08:12;10.17;;;7.67;;
793;SDS011;380;48.738;9.214;2023-07-02T18:11:03;9.68;;;7.80;;
793;SDS011;380;48.738;9.214;2023-07-02T18:13:33;10.23;;;7.75;;